Neva Corners, Wisconsin
Current Conditions -  °F | °C
As of 7:15 AM on Friday 31 Oct 2014 (Local Time) from KAIG Reporting Station
Overcast Overcast  
Wind Chill: 14°   Ceiling: 2600
Heat Index: 27°   Visibility: 10mi
Dew Point: 22°   Wind: 18mph
Humidity: 82%   Direction: 350°N
Pressure: 30.25"   Gusts: NA
Location:  45.2445°N, 89.211°W
Report Text: KAIG 311215Z AUTO 35016KT 10SM BKN026 OVC032 M03/M05 A3025 RMK AO2 T10271054
Loading
Personal Weather Stations






























Interactive Weather Map New forecast layout! Learn more

10-Day Weather Forecast

Advertisements
Track Severe Weather on mobile